createdAt,value
2022-08-20T00:02:11.847Z,22.38
2022-08-20T00:04:39.647Z,22.28
2022-08-20T00:07:07.446Z,22.28
2022-08-20T00:09:36.715Z,22.22
2022-08-20T00:12:05.604Z,22.25
2022-08-20T00:14:33.878Z,22.26
2022-08-20T00:17:01.624Z,22.25
2022-08-20T00:19:30.494Z,22.29
2022-08-20T00:21:58.648Z,22.40
2022-08-20T00:24:26.263Z,22.37
2022-08-20T00:26:53.806Z,22.39
2022-08-20T00:29:22.303Z,22.42
2022-08-20T00:31:50.485Z,22.50
2022-08-20T00:34:18.217Z,22.47
2022-08-20T00:36:47.089Z,22.44
2022-08-20T00:39:14.614Z,22.49
2022-08-20T00:41:42.166Z,22.48
2022-08-20T00:44:13.135Z,22.47
2022-08-20T00:46:41.306Z,22.58
2022-08-20T00:49:12.343Z,22.50
2022-08-20T00:51:42.357Z,22.52
2022-08-20T00:54:15.649Z,22.52
2022-08-20T00:56:44.878Z,22.55
2022-08-20T00:59:17.730Z,22.52
2022-08-20T01:01:55.393Z,22.42
2022-08-20T01:04:26.125Z,22.51
2022-08-20T01:06:53.719Z,22.57
2022-08-20T01:09:49.803Z,22.54
2022-08-20T01:12:10.734Z,22.52
2022-08-20T01:14:43.761Z,22.51
2022-08-20T01:17:15.937Z,22.58
2022-08-20T01:19:51.678Z,22.60
2022-08-20T01:22:42.176Z,22.56
2022-08-20T01:25:16.183Z,22.51
2022-08-20T01:27:45.439Z,22.48
2022-08-20T01:30:14.347Z,22.42
2022-08-20T01:32:41.852Z,22.42
2022-08-20T01:35:10.412Z,22.32
2022-08-20T01:37:38.069Z,22.31
2022-08-20T01:40:09.565Z,22.30
2022-08-20T01:42:53.979Z,22.20
2022-08-20T01:45:30.422Z,22.29
2022-08-20T01:47:58.773Z,22.26
2022-08-20T01:50:29.086Z,22.25
2022-08-20T01:53:00.581Z,22.24
2022-08-20T01:55:28.288Z,22.10
2022-08-20T01:57:55.961Z,22.13
2022-08-20T02:00:24.242Z,22.14
2022-08-20T02:02:53.137Z,21.97
2022-08-20T02:05:21.380Z,21.92
2022-08-20T02:07:49.155Z,21.97
2022-08-20T02:10:18.224Z,22.03
2022-08-20T02:12:45.862Z,21.96
2022-08-20T02:15:13.989Z,21.98
2022-08-20T02:17:41.973Z,21.97
2022-08-20T02:20:13.823Z,21.95
2022-08-20T02:22:49.240Z,21.89
2022-08-20T02:25:19.345Z,21.90
2022-08-20T02:27:48.455Z,21.91
2022-08-20T02:30:28.042Z,21.88
2022-08-20T02:32:56.295Z,21.91
2022-08-20T02:35:25.523Z,21.95
2022-08-20T02:37:53.673Z,21.78
2022-08-20T02:40:27.263Z,21.89
2022-08-20T02:42:57.970Z,21.96
2022-08-20T02:45:25.525Z,21.84
2022-08-20T02:47:55.613Z,21.92
2022-08-20T02:50:26.047Z,21.91
2022-08-20T02:52:54.167Z,21.89
2022-08-20T02:55:27.767Z,21.99
2022-08-20T02:57:57.897Z,21.99
2022-08-20T03:00:26.732Z,22.00
2022-08-20T03:02:54.234Z,22.04
2022-08-20T03:05:21.886Z,22.07
2022-08-20T03:07:53.586Z,22.04
2022-08-20T03:10:23.992Z,21.95
2022-08-20T03:12:52.531Z,21.87
2022-08-20T03:15:20.603Z,21.96
2022-08-20T03:17:48.437Z,22.06
2022-08-20T03:20:16.091Z,22.13
2022-08-20T03:22:43.703Z,22.09
2022-08-20T03:25:12.974Z,22.00
2022-08-20T03:27:40.486Z,22.00
2022-08-20T03:30:10.486Z,22.01
2022-08-20T03:32:38.520Z,22.14
2022-08-20T03:35:08.229Z,22.12
2022-08-20T03:37:37.096Z,22.08
2022-08-20T03:40:14.397Z,22.07
2022-08-20T03:42:41.966Z,22.02
2022-08-20T03:45:11.300Z,21.96
2022-08-20T03:47:38.814Z,21.97
2022-08-20T03:50:08.801Z,22.01
2022-08-20T03:52:42.285Z,22.08
2022-08-20T03:55:11.773Z,22.14
2022-08-20T03:57:45.671Z,22.11
2022-08-20T04:00:15.109Z,22.08
2022-08-20T04:02:42.668Z,22.00
2022-08-20T04:05:10.304Z,21.96
2022-08-20T04:07:37.788Z,21.96
2022-08-20T04:10:07.945Z,21.93
2022-08-20T04:12:48.624Z,21.89
2022-08-20T04:15:21.246Z,21.89
2022-08-20T04:17:51.023Z,21.86
2022-08-20T04:20:26.081Z,21.87
2022-08-20T04:22:58.630Z,21.94
2022-08-20T04:25:28.410Z,21.99
2022-08-20T04:27:59.034Z,22.01
2022-08-20T04:30:27.112Z,21.94
2022-08-20T04:32:55.278Z,22.03
2022-08-20T04:35:25.309Z,21.90
2022-08-20T04:37:59.494Z,21.88
2022-08-20T04:40:44.814Z,21.81
2022-08-20T04:43:13.843Z,21.70
2022-08-20T04:45:41.638Z,21.66
2022-08-20T04:48:14.278Z,21.65
2022-08-20T04:50:44.321Z,21.65
2022-08-20T04:53:14.457Z,21.44
2022-08-20T04:55:43.340Z,21.53
2022-08-20T04:58:13.716Z,21.57
2022-08-20T05:00:41.872Z,21.52
2022-08-20T05:03:09.370Z,21.57
2022-08-20T05:05:36.953Z,21.48
2022-08-20T05:08:05.308Z,21.56
2022-08-20T05:10:43.604Z,21.59
2022-08-20T05:13:11.124Z,21.59
2022-08-20T05:15:40.437Z,21.56
2022-08-20T05:18:09.104Z,21.59
2022-08-20T05:20:41.985Z,21.70
2022-08-20T05:23:10.891Z,21.64
2022-08-20T05:25:39.063Z,21.79
2022-08-20T05:28:09.292Z,21.80
2022-08-20T05:30:37.789Z,21.80
2022-08-20T05:33:08.255Z,21.78
2022-08-20T05:35:38.553Z,21.78
2022-08-20T05:38:07.256Z,21.76
2022-08-20T05:40:34.748Z,21.86
2022-08-20T05:43:04.523Z,21.85
2022-08-20T05:45:32.160Z,21.84
2022-08-20T05:47:59.671Z,21.60
2022-08-20T05:50:33.145Z,21.55
2022-08-20T05:53:01.401Z,21.64
2022-08-20T05:55:29.286Z,21.53
2022-08-20T05:57:58.197Z,21.40
2022-08-20T06:00:26.180Z,21.57
2022-08-20T06:03:11.182Z,21.64
2022-08-20T06:05:40.085Z,21.59
2022-08-20T06:08:08.208Z,21.48
2022-08-20T06:10:36.206Z,21.59
2022-08-20T06:13:04.137Z,21.52
2022-08-20T06:15:32.277Z,21.52
2022-08-20T06:17:59.844Z,21.49
2022-08-20T06:20:28.911Z,21.51
2022-08-20T06:22:57.769Z,21.44
2022-08-20T06:25:25.234Z,21.48
2022-08-20T06:27:52.757Z,21.49
2022-08-20T06:30:20.352Z,21.64
2022-08-20T06:32:47.831Z,21.49
2022-08-20T06:35:19.735Z,21.55
2022-08-20T06:37:48.027Z,21.52
2022-08-20T06:40:22.859Z,21.39
2022-08-20T06:42:51.028Z,21.55
2022-08-20T06:45:20.251Z,21.61
2022-08-20T06:47:48.478Z,21.61
2022-08-20T06:50:18.049Z,21.78
2022-08-20T06:52:52.704Z,21.69
2022-08-20T06:55:22.750Z,21.66
2022-08-20T06:57:57.963Z,21.69
2022-08-20T07:00:25.514Z,21.69
2022-08-20T07:02:53.184Z,21.71
2022-08-20T07:05:20.788Z,21.74
2022-08-20T07:07:50.409Z,21.64
2022-08-20T07:10:20.352Z,21.61
2022-08-20T07:12:50.286Z,21.66
2022-08-20T07:15:19.361Z,21.78
2022-08-20T07:17:51.273Z,21.79
2022-08-20T07:20:19.127Z,21.78
2022-08-20T07:22:46.630Z,21.86
2022-08-20T07:25:18.063Z,21.95
2022-08-20T07:27:46.621Z,21.93
2022-08-20T07:30:56.229Z,22.10
2022-08-20T07:33:22.657Z,22.11
2022-08-20T07:35:50.345Z,22.16
2022-08-20T07:38:24.251Z,22.07
2022-08-20T07:40:53.123Z,22.06
2022-08-20T07:43:21.494Z,22.01
2022-08-20T07:45:52.201Z,22.14
2022-08-20T07:48:31.295Z,22.15
2022-08-20T07:51:01.052Z,22.02
2022-08-20T07:53:32.303Z,22.15
2022-08-20T07:56:03.325Z,22.45
2022-08-20T07:58:33.093Z,22.65
2022-08-20T08:01:02.592Z,22.81
2022-08-20T08:03:40.449Z,22.87
2022-08-20T08:06:28.725Z,22.83
2022-08-20T08:08:59.446Z,23.03
2022-08-20T08:11:27.027Z,23.18
2022-08-20T08:13:54.546Z,23.34
2022-08-20T08:16:23.489Z,23.66
2022-08-20T08:18:56.268Z,23.90
2022-08-20T08:21:23.791Z,24.10
2022-08-20T08:23:51.320Z,24.21
2022-08-20T08:26:19.819Z,24.14
2022-08-20T08:28:47.438Z,24.08
2022-08-20T08:31:16.197Z,24.11
2022-08-20T08:33:45.051Z,24.26
2022-08-20T08:36:15.107Z,24.45
2022-08-20T08:38:44.958Z,24.20
2022-08-20T08:41:17.310Z,23.94
2022-08-20T08:43:46.677Z,24.10
2022-08-20T08:46:14.855Z,23.82
2022-08-20T08:48:47.613Z,23.68
2022-08-20T08:51:18.096Z,23.70
2022-08-20T08:53:48.709Z,23.59
2022-08-20T08:56:16.358Z,23.76
2022-08-20T08:58:44.440Z,23.90
2022-08-20T09:01:53.140Z,24.13
2022-08-20T09:04:05.870Z,24.43
2022-08-20T09:06:33.831Z,24.45
2022-08-20T09:09:03.298Z,24.53
2022-08-20T09:11:32.051Z,24.26
2022-08-20T09:13:59.589Z,24.11
2022-08-20T09:16:27.973Z,24.17
2022-08-20T09:19:01.931Z,24.35
2022-08-20T09:21:29.508Z,24.37
2022-08-20T09:23:57.016Z,24.40
2022-08-20T09:26:29.111Z,24.34
2022-08-20T09:28:56.782Z,24.15
2022-08-20T09:31:24.330Z,24.14
2022-08-20T09:33:51.929Z,24.01
2022-08-20T09:36:30.677Z,24.28
2022-08-20T09:39:00.353Z,24.43
2022-08-20T09:41:28.020Z,24.48
2022-08-20T09:43:55.521Z,24.60
2022-08-20T09:46:27.260Z,24.57
2022-08-20T09:48:55.160Z,24.66
2022-08-20T09:51:24.099Z,24.70
2022-08-20T09:53:51.680Z,24.88
2022-08-20T09:56:19.279Z,24.95
2022-08-20T09:58:49.603Z,24.84
2022-08-20T10:01:19.046Z,24.93
2022-08-20T10:03:48.850Z,24.93
2022-08-20T10:06:17.742Z,25.05
2022-08-20T10:08:46.904Z,25.23
2022-08-20T10:11:14.446Z,25.39
2022-08-20T10:13:41.957Z,25.40
2022-08-20T10:16:09.462Z,25.37
2022-08-20T10:18:37.369Z,25.27
2022-08-20T10:21:10.443Z,25.25
2022-08-20T10:23:37.950Z,25.29
2022-08-20T10:26:08.249Z,25.35
2022-08-20T10:28:35.901Z,25.29
2022-08-20T10:31:04.603Z,25.44
2022-08-20T10:33:32.185Z,25.55
2022-08-20T10:36:00.261Z,25.81
2022-08-20T10:38:27.835Z,26.04
2022-08-20T10:40:55.465Z,26.02
2022-08-20T10:43:24.288Z,26.15
2022-08-20T10:45:52.087Z,26.32
2022-08-20T10:48:21.506Z,26.45
2022-08-20T10:50:49.843Z,26.42
2022-08-20T10:53:17.340Z,26.29
2022-08-20T10:55:45.024Z,26.49
2022-08-20T10:58:13.133Z,26.80
2022-08-20T11:00:42.165Z,26.76
2022-08-20T11:03:09.653Z,26.73
2022-08-20T11:05:37.130Z,26.44
2022-08-20T11:08:05.554Z,26.55
2022-08-20T11:10:35.111Z,26.68
2022-08-20T11:13:03.877Z,26.75
2022-08-20T11:15:37.298Z,26.81
2022-08-20T11:18:06.892Z,26.83
2022-08-20T11:20:34.757Z,26.98
2022-08-20T11:23:02.603Z,27.12
2022-08-20T11:25:30.656Z,27.20
2022-08-20T11:27:58.749Z,27.33
2022-08-20T11:30:28.993Z,27.49
2022-08-20T11:32:57.137Z,27.62
2022-08-20T11:35:43.463Z,27.87
2022-08-20T11:38:14.451Z,28.06
2022-08-20T11:40:41.955Z,28.04
2022-08-20T11:43:17.836Z,28.09
2022-08-20T11:45:46.439Z,28.08
2022-08-20T11:48:14.491Z,28.10
2022-08-20T11:50:43.327Z,28.29
2022-08-20T11:53:10.980Z,28.46
2022-08-20T11:55:38.903Z,28.43
2022-08-20T11:58:06.715Z,28.66
2022-08-20T12:00:36.638Z,28.90
2022-08-20T12:03:08.878Z,28.93
2022-08-20T12:05:37.759Z,28.53
2022-08-20T12:08:08.298Z,28.34
2022-08-20T12:10:36.535Z,28.26
2022-08-20T12:13:04.704Z,28.48
2022-08-20T12:15:32.804Z,28.70
2022-08-20T12:18:01.118Z,28.57
2022-08-20T12:20:28.709Z,28.06
2022-08-20T12:22:56.569Z,27.94
2022-08-20T12:25:25.595Z,28.26
2022-08-20T12:27:53.119Z,28.46
2022-08-20T12:30:22.469Z,28.64
2022-08-20T12:32:50.149Z,28.72
2022-08-20T12:35:19.475Z,28.61
2022-08-20T12:37:47.442Z,28.40
2022-08-20T12:40:21.477Z,28.51
2022-08-20T12:43:01.353Z,28.74
2022-08-20T12:45:29.489Z,28.66
2022-08-20T12:48:02.638Z,28.54
2022-08-20T12:50:31.792Z,28.71
2022-08-20T12:52:59.758Z,28.63
2022-08-20T12:55:27.458Z,28.63
2022-08-20T12:57:57.110Z,28.58
2022-08-20T13:00:28.419Z,28.62
2022-08-20T13:02:58.607Z,28.65
2022-08-20T13:05:28.081Z,28.81
2022-08-20T13:07:56.055Z,28.93
2022-08-20T13:10:27.849Z,28.93
2022-08-20T13:12:55.524Z,28.86
2022-08-20T13:15:23.943Z,28.91
2022-08-20T13:17:53.895Z,28.54
2022-08-20T13:20:21.861Z,28.56
2022-08-20T13:22:49.506Z,28.46
2022-08-20T13:25:17.075Z,28.55
2022-08-20T13:27:45.493Z,28.57
2022-08-20T13:30:15.726Z,28.69
2022-08-20T13:32:43.274Z,28.67
2022-08-20T13:35:13.056Z,28.86
2022-08-20T13:37:42.595Z,28.98
2022-08-20T13:40:11.446Z,29.10
2022-08-20T13:42:41.021Z,29.22
2022-08-20T13:45:10.471Z,29.37
2022-08-20T13:47:40.021Z,29.46
2022-08-20T13:50:10.195Z,29.18
2022-08-20T13:52:39.715Z,29.17
2022-08-20T13:55:12.173Z,29.30
2022-08-20T13:57:40.956Z,29.42
2022-08-20T14:00:11.763Z,29.27
2022-08-20T14:02:39.392Z,29.16
2022-08-20T14:05:07.857Z,29.21
2022-08-20T14:07:39.680Z,29.32
2022-08-20T14:10:09.814Z,29.22
2022-08-20T14:12:37.613Z,29.38
2022-08-20T14:15:06.586Z,29.42
2022-08-20T14:17:35.410Z,29.51
2022-08-20T14:20:05.737Z,29.35
2022-08-20T14:22:36.485Z,29.33
2022-08-20T14:25:06.606Z,29.29
2022-08-20T14:27:34.560Z,29.13
2022-08-20T14:30:02.877Z,29.14
2022-08-20T14:32:30.464Z,29.04
2022-08-20T14:34:59.344Z,28.93
2022-08-20T14:37:30.362Z,28.96
2022-08-20T14:39:59.341Z,29.01
2022-08-20T14:42:30.385Z,28.82
2022-08-20T14:44:58.884Z,28.76
2022-08-20T14:47:27.952Z,28.76
2022-08-20T14:49:59.577Z,28.71
2022-08-20T14:52:28.183Z,28.70
2022-08-20T14:54:56.577Z,28.68
2022-08-20T14:57:24.374Z,28.60
2022-08-20T14:59:54.706Z,28.50
2022-08-20T15:02:22.335Z,28.61
2022-08-20T15:04:54.465Z,28.49
2022-08-20T15:07:25.001Z,28.52
2022-08-20T15:09:53.553Z,28.54
2022-08-20T15:12:21.184Z,28.48
2022-08-20T15:14:50.271Z,28.35
2022-08-20T15:17:21.589Z,28.37
2022-08-20T15:19:49.875Z,28.28
2022-08-20T15:22:18.491Z,28.27
2022-08-20T15:24:46.115Z,28.23
2022-08-20T15:27:20.383Z,28.37
2022-08-20T15:29:50.478Z,28.30
2022-08-20T15:32:20.119Z,28.25
2022-08-20T15:34:47.859Z,28.23
2022-08-20T15:37:18.687Z,28.18
2022-08-20T15:39:46.648Z,28.04
2022-08-20T15:42:14.874Z,28.02
2022-08-20T15:44:43.549Z,28.06
2022-08-20T15:47:24.008Z,27.98
2022-08-20T15:49:54.687Z,27.84
2022-08-20T15:52:22.694Z,27.74
2022-08-20T15:54:54.995Z,27.72
2022-08-20T15:57:35.898Z,27.80
2022-08-20T16:00:13.101Z,27.70
2022-08-20T16:02:57.565Z,27.58
2022-08-20T16:05:30.801Z,27.64
2022-08-20T16:08:08.674Z,27.59
2022-08-20T16:10:44.528Z,27.48
2022-08-20T16:13:21.588Z,27.59
2022-08-20T16:15:53.136Z,27.64
2022-08-20T16:18:24.221Z,27.66
2022-08-20T16:20:54.045Z,27.51
2022-08-20T16:23:24.719Z,27.31
2022-08-20T16:26:00.070Z,27.36
2022-08-20T16:28:32.001Z,27.33
2022-08-20T16:31:01.754Z,27.28
2022-08-20T16:33:32.953Z,27.30
2022-08-20T16:36:08.008Z,27.42
2022-08-20T16:38:41.873Z,27.39
2022-08-20T16:41:14.052Z,27.26
2022-08-20T16:43:47.050Z,27.16
2022-08-20T16:46:18.520Z,27.09
2022-08-20T16:48:51.082Z,27.09
2022-08-20T16:51:22.610Z,27.06
2022-08-20T16:53:50.071Z,27.00
2022-08-20T16:56:31.517Z,26.97
2022-08-20T16:59:02.969Z,26.99
2022-08-20T17:01:30.765Z,26.90
2022-08-20T17:03:59.886Z,26.95
2022-08-20T17:06:33.591Z,26.90
2022-08-20T17:09:06.348Z,26.74
2022-08-20T17:11:36.275Z,26.68
2022-08-20T17:14:10.304Z,26.62
2022-08-20T17:16:40.767Z,26.66
2022-08-20T17:19:13.494Z,26.64
2022-08-20T17:21:42.153Z,26.40
2022-08-20T17:24:16.704Z,26.38
2022-08-20T17:26:46.733Z,26.20
2022-08-20T17:29:16.175Z,26.29
2022-08-20T17:31:46.222Z,26.24
2022-08-20T17:34:16.426Z,26.21
2022-08-20T17:36:53.925Z,26.19
2022-08-20T17:39:22.816Z,26.21
2022-08-20T17:41:53.544Z,26.26
2022-08-20T17:44:23.364Z,26.20
2022-08-20T17:46:51.084Z,26.29
2022-08-20T17:49:21.344Z,26.25
2022-08-20T17:51:51.276Z,26.24
2022-08-20T17:54:23.310Z,26.07
2022-08-20T17:56:54.225Z,25.89
2022-08-20T18:00:00.369Z,25.94
2022-08-20T18:02:14.767Z,25.99
2022-08-20T18:04:43.989Z,25.86
2022-08-20T18:07:19.240Z,25.67
2022-08-20T18:09:51.797Z,25.66
2022-08-20T18:12:33.318Z,25.64
2022-08-20T18:15:07.470Z,25.65
2022-08-20T18:17:49.387Z,25.55
2022-08-20T18:20:37.883Z,25.61
2022-08-20T18:23:09.242Z,25.55
2022-08-20T18:25:39.247Z,25.48
2022-08-20T18:28:10.681Z,25.37
2022-08-20T18:30:48.623Z,25.33
2022-08-20T18:33:27.372Z,25.35
2022-08-20T18:36:11.158Z,25.19
2022-08-20T18:38:42.021Z,25.16
2022-08-20T18:41:12.742Z,25.12
2022-08-20T18:43:40.766Z,24.95
2022-08-20T18:46:14.264Z,24.93
2022-08-20T18:48:55.626Z,24.95
2022-08-20T18:51:30.156Z,24.84
2022-08-20T18:53:57.685Z,24.75
2022-08-20T18:56:41.158Z,24.65
2022-08-20T18:59:14.362Z,24.83
2022-08-20T19:01:43.007Z,24.54
2022-08-20T19:04:22.422Z,24.70
2022-08-20T19:06:57.466Z,24.53
2022-08-20T19:09:49.856Z,24.56
2022-08-20T19:12:29.415Z,24.35
2022-08-20T19:15:01.336Z,24.08
2022-08-20T19:17:44.366Z,23.79
2022-08-20T19:20:16.295Z,23.89
2022-08-20T19:22:45.961Z,23.72
2022-08-20T19:25:23.700Z,23.61
2022-08-20T19:27:51.609Z,23.50
2022-08-20T19:30:29.747Z,23.46
2022-08-20T19:32:57.451Z,23.58
2022-08-20T19:35:25.374Z,23.41
2022-08-20T19:37:54.372Z,23.39
2022-08-20T19:40:28.280Z,23.25
2022-08-20T19:42:57.992Z,23.18
2022-08-20T19:45:30.774Z,23.07
2022-08-20T19:48:18.224Z,23.04
2022-08-20T19:51:02.094Z,23.09
2022-08-20T19:53:33.022Z,23.08
2022-08-20T19:56:02.218Z,22.91
2022-08-20T19:58:31.358Z,22.79
2022-08-20T20:00:59.437Z,22.82
2022-08-20T20:03:30.234Z,22.84
2022-08-20T20:06:02.009Z,22.80
2022-08-20T20:08:39.903Z,22.80
2022-08-20T20:11:07.818Z,22.87
2022-08-20T20:13:39.913Z,22.89
2022-08-20T20:16:08.111Z,22.64
2022-08-20T20:18:39.056Z,22.55
2022-08-20T20:21:15.101Z,22.48
2022-08-20T20:23:52.251Z,22.54
2022-08-20T20:26:20.809Z,22.50
2022-08-20T20:28:50.376Z,22.41
2022-08-20T20:31:24.541Z,22.45
2022-08-20T20:33:54.793Z,22.37
2022-08-20T20:36:33.887Z,22.31
2022-08-20T20:39:08.472Z,22.25
2022-08-20T20:41:38.967Z,21.99
2022-08-20T20:44:17.102Z,22.02
2022-08-20T20:46:47.363Z,21.75
2022-08-20T20:49:21.230Z,21.38
2022-08-20T20:51:55.369Z,21.07
2022-08-20T20:54:28.398Z,21.21
2022-08-20T20:57:02.447Z,21.23
2022-08-20T20:59:30.687Z,21.21
2022-08-20T21:01:58.307Z,21.28
2022-08-20T21:04:26.361Z,21.28
2022-08-20T21:06:56.614Z,21.07
2022-08-20T21:09:26.564Z,20.55
2022-08-20T21:11:54.200Z,20.24
2022-08-20T21:14:21.782Z,20.74
2022-08-20T21:16:49.350Z,20.78
2022-08-20T21:19:17.080Z,20.72
2022-08-20T21:21:44.911Z,20.47
2022-08-20T21:24:13.003Z,20.58
2022-08-20T21:26:42.242Z,20.64
2022-08-20T21:29:10.909Z,20.30
2022-08-20T21:31:43.938Z,19.93
2022-08-20T21:34:11.951Z,19.91
2022-08-20T21:36:39.699Z,19.46
2022-08-20T21:39:07.326Z,19.39
2022-08-20T21:41:36.427Z,19.67
2022-08-20T21:44:08.442Z,19.81
2022-08-20T21:46:36.040Z,19.71
2022-08-20T21:49:04.535Z,19.75
2022-08-20T21:51:32.466Z,19.91
2022-08-20T21:54:00.786Z,19.84
2022-08-20T21:56:28.372Z,19.63
2022-08-20T21:59:00.160Z,19.56
2022-08-20T22:01:29.714Z,19.14
2022-08-20T22:03:57.323Z,19.32
2022-08-20T22:06:25.005Z,19.70
2022-08-20T22:08:52.565Z,19.66
2022-08-20T22:11:20.542Z,19.08
2022-08-20T22:13:48.100Z,18.77
2022-08-20T22:16:18.415Z,18.93
2022-08-20T22:18:48.596Z,19.03
2022-08-20T22:21:18.387Z,18.95
2022-08-20T22:23:46.637Z,19.31
2022-08-20T22:26:16.223Z,18.88
2022-08-20T22:28:43.948Z,18.58
2022-08-20T22:31:20.614Z,18.62
2022-08-20T22:33:49.521Z,18.79
2022-08-20T22:36:27.687Z,18.96
2022-08-20T22:38:55.709Z,18.81
2022-08-20T22:41:26.226Z,18.91
2022-08-20T22:43:56.515Z,18.56
2022-08-20T22:46:26.757Z,18.33
2022-08-20T22:48:55.956Z,18.36
2022-08-20T22:51:28.223Z,18.37
2022-08-20T22:53:55.892Z,18.27
2022-08-20T22:56:23.454Z,18.28
2022-08-20T22:58:51.013Z,18.13
2022-08-20T23:01:19.784Z,18.32
2022-08-20T23:03:47.463Z,18.43
2022-08-20T23:06:16.584Z,18.58
2022-08-20T23:08:45.392Z,18.45
2022-08-20T23:11:13.702Z,18.22
2022-08-20T23:13:41.196Z,17.97
2022-08-20T23:16:08.941Z,17.65
2022-08-20T23:18:36.545Z,17.52
2022-08-20T23:21:04.131Z,17.54
2022-08-20T23:23:33.497Z,17.54
2022-08-20T23:26:01.390Z,17.73
2022-08-20T23:28:29.029Z,17.47
2022-08-20T23:30:56.583Z,17.29
2022-08-20T23:33:24.185Z,17.33
2022-08-20T23:35:51.788Z,17.56
2022-08-20T23:38:20.535Z,17.80
2022-08-20T23:40:49.617Z,17.93
2022-08-20T23:43:18.679Z,17.66
2022-08-20T23:45:46.384Z,17.58
2022-08-20T23:48:14.056Z,17.38
2022-08-20T23:50:42.001Z,17.51
2022-08-20T23:53:09.838Z,17.53
2022-08-20T23:55:38.948Z,17.42
2022-08-20T23:58:08.261Z,17.25
